sensor_id;sensor_type;location;lat;lon;timestamp;P1;durP1;ratioP1;P2;durP2;ratioP2
36995;SDS011;22905;50.340;10.776;2023-05-20T00:04:51;9.75;;;4.95;;
36995;SDS011;22905;50.340;10.776;2023-05-20T00:09:51;7.55;;;5.25;;
36995;SDS011;22905;50.340;10.776;2023-05-20T00:14:52;9.77;;;5.22;;
36995;SDS011;22905;50.340;10.776;2023-05-20T00:19:53;11.48;;;4.93;;
36995;SDS011;22905;50.340;10.776;2023-05-20T00:24:53;7.95;;;4.60;;
36995;SDS011;22905;50.340;10.776;2023-05-20T00:29:53;7.38;;;4.72;;
36995;SDS011;22905;50.340;10.776;2023-05-20T00:34:54;8.17;;;5.40;;
36995;SDS011;22905;50.340;10.776;2023-05-20T00:39:56;10.82;;;5.13;;
36995;SDS011;22905;50.340;10.776;2023-05-20T00:44:56;9.70;;;4.75;;
36995;SDS011;22905;50.340;10.776;2023-05-20T00:49:56;13.32;;;5.72;;
36995;SDS011;22905;50.340;10.776;2023-05-20T00:54:57;12.00;;;6.15;;
36995;SDS011;22905;50.340;10.776;2023-05-20T00:59:58;8.18;;;5.35;;
36995;SDS011;22905;50.340;10.776;2023-05-20T01:04:58;10.30;;;5.50;;
36995;SDS011;22905;50.340;10.776;2023-05-20T01:09:59;11.15;;;5.57;;
36995;SDS011;22905;50.340;10.776;2023-05-20T01:15:00;10.05;;;6.60;;
36995;SDS011;22905;50.340;10.776;2023-05-20T01:20:05;9.48;;;5.53;;
36995;SDS011;22905;50.340;10.776;2023-05-20T01:25:08;13.68;;;6.47;;
36995;SDS011;22905;50.340;10.776;2023-05-20T01:30:09;8.63;;;5.18;;
36995;SDS011;22905;50.340;10.776;2023-05-20T01:35:10;9.95;;;5.68;;
36995;SDS011;22905;50.340;10.776;2023-05-20T01:40:11;8.20;;;5.80;;
36995;SDS011;22905;50.340;10.776;2023-05-20T01:45:14;10.50;;;6.35;;
36995;SDS011;22905;50.340;10.776;2023-05-20T01:50:14;6.80;;;5.18;;
36995;SDS011;22905;50.340;10.776;2023-05-20T01:55:14;16.93;;;6.33;;
36995;SDS011;22905;50.340;10.776;2023-05-20T02:00:15;9.80;;;6.73;;
36995;SDS011;22905;50.340;10.776;2023-05-20T02:05:15;12.10;;;6.93;;
36995;SDS011;22905;50.340;10.776;2023-05-20T02:10:15;9.53;;;6.57;;
36995;SDS011;22905;50.340;10.776;2023-05-20T02:15:16;10.20;;;6.97;;
36995;SDS011;22905;50.340;10.776;2023-05-20T02:20:16;11.25;;;6.47;;
36995;SDS011;22905;50.340;10.776;2023-05-20T02:25:17;9.88;;;6.63;;
36995;SDS011;22905;50.340;10.776;2023-05-20T02:30:17;11.00;;;7.07;;
36995;SDS011;22905;50.340;10.776;2023-05-20T02:35:17;13.03;;;7.07;;
36995;SDS011;22905;50.340;10.776;2023-05-20T02:40:18;10.77;;;6.82;;
36995;SDS011;22905;50.340;10.776;2023-05-20T02:45:18;12.77;;;8.18;;
36995;SDS011;22905;50.340;10.776;2023-05-20T02:50:18;33.60;;;9.80;;
36995;SDS011;22905;50.340;10.776;2023-05-20T02:55:19;12.77;;;8.05;;
36995;SDS011;22905;50.340;10.776;2023-05-20T03:00:20;9.70;;;7.15;;
36995;SDS011;22905;50.340;10.776;2023-05-20T03:05:22;12.10;;;7.63;;
36995;SDS011;22905;50.340;10.776;2023-05-20T03:10:22;12.20;;;7.32;;
36995;SDS011;22905;50.340;10.776;2023-05-20T03:15:23;13.13;;;8.23;;
36995;SDS011;22905;50.340;10.776;2023-05-20T03:20:23;16.20;;;9.20;;
36995;SDS011;22905;50.340;10.776;2023-05-20T03:25:25;14.77;;;9.50;;
36995;SDS011;22905;50.340;10.776;2023-05-20T03:30:26;13.02;;;8.25;;
36995;SDS011;22905;50.340;10.776;2023-05-20T03:35:27;16.02;;;9.20;;
36995;SDS011;22905;50.340;10.776;2023-05-20T03:40:27;12.18;;;8.18;;
36995;SDS011;22905;50.340;10.776;2023-05-20T03:45:27;13.35;;;9.00;;
36995;SDS011;22905;50.340;10.776;2023-05-20T03:50:28;12.03;;;8.80;;
36995;SDS011;22905;50.340;10.776;2023-05-20T03:55:30;17.37;;;8.87;;
36995;SDS011;22905;50.340;10.776;2023-05-20T04:00:31;15.65;;;10.20;;
36995;SDS011;22905;50.340;10.776;2023-05-20T04:05:31;22.83;;;10.43;;
36995;SDS011;22905;50.340;10.776;2023-05-20T04:10:31;15.20;;;10.30;;
36995;SDS011;22905;50.340;10.776;2023-05-20T04:15:34;19.30;;;9.68;;
36995;SDS011;22905;50.340;10.776;2023-05-20T04:25:35;16.35;;;10.82;;
36995;SDS011;22905;50.340;10.776;2023-05-20T04:30:35;16.05;;;10.32;;
36995;SDS011;22905;50.340;10.776;2023-05-20T04:35:35;14.27;;;9.73;;
36995;SDS011;22905;50.340;10.776;2023-05-20T04:40:37;16.42;;;11.18;;
36995;SDS011;22905;50.340;10.776;2023-05-20T04:45:38;22.90;;;11.13;;
36995;SDS011;22905;50.340;10.776;2023-05-20T04:50:39;20.10;;;11.10;;
36995;SDS011;22905;50.340;10.776;2023-05-20T04:55:40;16.42;;;10.63;;
36995;SDS011;22905;50.340;10.776;2023-05-20T05:00:42;23.52;;;11.40;;
36995;SDS011;22905;50.340;10.776;2023-05-20T05:05:43;17.98;;;11.70;;
36995;SDS011;22905;50.340;10.776;2023-05-20T05:10:43;19.27;;;11.50;;
36995;SDS011;22905;50.340;10.776;2023-05-20T05:15:44;19.00;;;11.60;;
36995;SDS011;22905;50.340;10.776;2023-05-20T05:20:44;19.50;;;11.80;;
36995;SDS011;22905;50.340;10.776;2023-05-20T05:25:49;20.03;;;11.17;;
36995;SDS011;22905;50.340;10.776;2023-05-20T05:30:52;23.58;;;12.13;;
36995;SDS011;22905;50.340;10.776;2023-05-20T05:35:53;22.90;;;12.23;;
36995;SDS011;22905;50.340;10.776;2023-05-20T05:40:53;16.87;;;11.17;;
36995;SDS011;22905;50.340;10.776;2023-05-20T05:45:54;22.23;;;12.00;;
36995;SDS011;22905;50.340;10.776;2023-05-20T05:50:54;18.98;;;12.23;;
36995;SDS011;22905;50.340;10.776;2023-05-20T05:55:55;17.90;;;12.40;;
36995;SDS011;22905;50.340;10.776;2023-05-20T06:00:55;19.27;;;12.18;;
36995;SDS011;22905;50.340;10.776;2023-05-20T06:05:56;21.98;;;12.77;;
36995;SDS011;22905;50.340;10.776;2023-05-20T06:10:57;19.60;;;11.90;;
36995;SDS011;22905;50.340;10.776;2023-05-20T06:15:57;19.27;;;11.90;;
36995;SDS011;22905;50.340;10.776;2023-05-20T06:20:57;19.57;;;12.07;;
36995;SDS011;22905;50.340;10.776;2023-05-20T06:25:58;18.27;;;11.55;;
36995;SDS011;22905;50.340;10.776;2023-05-20T06:30:59;19.67;;;11.70;;
36995;SDS011;22905;50.340;10.776;2023-05-20T06:35:59;20.25;;;12.07;;
36995;SDS011;22905;50.340;10.776;2023-05-20T06:41:00;16.55;;;10.80;;
36995;SDS011;22905;50.340;10.776;2023-05-20T06:46:01;18.07;;;11.63;;
36995;SDS011;22905;50.340;10.776;2023-05-20T06:51:01;19.35;;;11.10;;
36995;SDS011;22905;50.340;10.776;2023-05-20T06:56:01;16.30;;;11.10;;
36995;SDS011;22905;50.340;10.776;2023-05-20T07:01:02;20.20;;;11.80;;
36995;SDS011;22905;50.340;10.776;2023-05-20T07:06:02;18.70;;;11.63;;
36995;SDS011;22905;50.340;10.776;2023-05-20T07:11:02;21.43;;;13.53;;
36995;SDS011;22905;50.340;10.776;2023-05-20T07:16:03;17.30;;;11.82;;
36995;SDS011;22905;50.340;10.776;2023-05-20T07:21:03;17.23;;;11.68;;
36995;SDS011;22905;50.340;10.776;2023-05-20T07:26:03;15.83;;;10.03;;
36995;SDS011;22905;50.340;10.776;2023-05-20T07:31:04;16.40;;;10.93;;
36995;SDS011;22905;50.340;10.776;2023-05-20T07:36:05;17.45;;;10.85;;
36995;SDS011;22905;50.340;10.776;2023-05-20T07:41:05;20.52;;;10.60;;
36995;SDS011;22905;50.340;10.776;2023-05-20T07:46:05;19.93;;;11.30;;
36995;SDS011;22905;50.340;10.776;2023-05-20T07:51:06;17.00;;;11.20;;
36995;SDS011;22905;50.340;10.776;2023-05-20T07:56:06;15.47;;;10.70;;
36995;SDS011;22905;50.340;10.776;2023-05-20T08:01:07;22.83;;;12.05;;
36995;SDS011;22905;50.340;10.776;2023-05-20T08:06:08;18.70;;;11.10;;
36995;SDS011;22905;50.340;10.776;2023-05-20T08:11:08;16.58;;;11.02;;
36995;SDS011;22905;50.340;10.776;2023-05-20T08:16:09;18.90;;;11.73;;
36995;SDS011;22905;50.340;10.776;2023-05-20T08:21:09;20.17;;;10.60;;
36995;SDS011;22905;50.340;10.776;2023-05-20T08:26:09;16.92;;;11.27;;
36995;SDS011;22905;50.340;10.776;2023-05-20T08:31:10;16.92;;;10.82;;
36995;SDS011;22905;50.340;10.776;2023-05-20T08:36:10;19.48;;;12.80;;
36995;SDS011;22905;50.340;10.776;2023-05-20T08:41:10;18.40;;;11.35;;
36995;SDS011;22905;50.340;10.776;2023-05-20T08:46:11;18.57;;;11.70;;
36995;SDS011;22905;50.340;10.776;2023-05-20T08:51:11;17.42;;;10.93;;
36995;SDS011;22905;50.340;10.776;2023-05-20T08:56:13;14.67;;;10.43;;
36995;SDS011;22905;50.340;10.776;2023-05-20T09:01:15;18.17;;;11.45;;
36995;SDS011;22905;50.340;10.776;2023-05-20T09:06:15;15.65;;;11.20;;
36995;SDS011;22905;50.340;10.776;2023-05-20T09:11:19;15.57;;;10.35;;
36995;SDS011;22905;50.340;10.776;2023-05-20T09:16:21;17.85;;;10.52;;
36995;SDS011;22905;50.340;10.776;2023-05-20T09:21:27;20.48;;;11.27;;
36995;SDS011;22905;50.340;10.776;2023-05-20T09:26:28;16.88;;;11.48;;
36995;SDS011;22905;50.340;10.776;2023-05-20T09:31:31;15.02;;;11.05;;
36995;SDS011;22905;50.340;10.776;2023-05-20T09:36:33;16.92;;;11.15;;
36995;SDS011;22905;50.340;10.776;2023-05-20T09:47:30;15.90;;;9.10;;
36995;SDS011;22905;50.340;10.776;2023-05-20T09:52:31;12.88;;;10.15;;
36995;SDS011;22905;50.340;10.776;2023-05-20T09:57:33;13.55;;;9.82;;
36995;SDS011;22905;50.340;10.776;2023-05-20T10:02:34;14.00;;;10.75;;
36995;SDS011;22905;50.340;10.776;2023-05-20T10:07:39;17.00;;;11.40;;
36995;SDS011;22905;50.340;10.776;2023-05-20T10:28:30;15.32;;;11.20;;
36995;SDS011;22905;50.340;10.776;2023-05-20T10:33:39;14.50;;;10.77;;
36995;SDS011;22905;50.340;10.776;2023-05-20T10:38:53;19.23;;;11.13;;
36995;SDS011;22905;50.340;10.776;2023-05-20T10:44:01;16.02;;;10.82;;
36995;SDS011;22905;50.340;10.776;2023-05-20T10:49:05;18.20;;;10.88;;
36995;SDS011;22905;50.340;10.776;2023-05-20T10:54:16;14.27;;;10.90;;
36995;SDS011;22905;50.340;10.776;2023-05-20T10:59:17;17.63;;;10.80;;
36995;SDS011;22905;50.340;10.776;2023-05-20T11:04:17;15.27;;;10.00;;
36995;SDS011;22905;50.340;10.776;2023-05-20T11:09:18;14.80;;;9.95;;
36995;SDS011;22905;50.340;10.776;2023-05-20T11:14:19;17.00;;;9.98;;
36995;SDS011;22905;50.340;10.776;2023-05-20T11:19:20;28.48;;;9.63;;
36995;SDS011;22905;50.340;10.776;2023-05-20T11:24:21;14.23;;;9.43;;
36995;SDS011;22905;50.340;10.776;2023-05-20T11:29:26;13.13;;;10.40;;
36995;SDS011;22905;50.340;10.776;2023-05-20T11:34:38;18.42;;;10.80;;
36995;SDS011;22905;50.340;10.776;2023-05-20T11:39:38;15.48;;;10.25;;
36995;SDS011;22905;50.340;10.776;2023-05-20T11:44:41;14.05;;;9.07;;
36995;SDS011;22905;50.340;10.776;2023-05-20T11:49:46;12.27;;;9.23;;
36995;SDS011;22905;50.340;10.776;2023-05-20T11:54:53;12.77;;;9.73;;
36995;SDS011;22905;50.340;10.776;2023-05-20T11:59:53;13.13;;;8.75;;
36995;SDS011;22905;50.340;10.776;2023-05-20T12:04:54;11.87;;;8.97;;
36995;SDS011;22905;50.340;10.776;2023-05-20T12:09:54;11.93;;;8.57;;
36995;SDS011;22905;50.340;10.776;2023-05-20T12:14:54;16.13;;;7.87;;
36995;SDS011;22905;50.340;10.776;2023-05-20T12:19:55;12.37;;;9.10;;
36995;SDS011;22905;50.340;10.776;2023-05-20T12:24:55;15.80;;;9.93;;
36995;SDS011;22905;50.340;10.776;2023-05-20T12:29:55;13.05;;;9.75;;
36995;SDS011;22905;50.340;10.776;2023-05-20T12:34:57;14.55;;;10.35;;
36995;SDS011;22905;50.340;10.776;2023-05-20T12:39:58;15.87;;;10.60;;
36995;SDS011;22905;50.340;10.776;2023-05-20T12:44:58;16.05;;;10.77;;
36995;SDS011;22905;50.340;10.776;2023-05-20T12:49:59;17.27;;;9.85;;
36995;SDS011;22905;50.340;10.776;2023-05-20T12:54:59;12.57;;;9.63;;
36995;SDS011;22905;50.340;10.776;2023-05-20T13:00:00;13.97;;;10.03;;
36995;SDS011;22905;50.340;10.776;2023-05-20T13:05:00;16.33;;;9.77;;
36995;SDS011;22905;50.340;10.776;2023-05-20T13:10:00;16.35;;;9.45;;
36995;SDS011;22905;50.340;10.776;2023-05-20T13:15:01;14.73;;;11.05;;
36995;SDS011;22905;50.340;10.776;2023-05-20T13:20:02;14.52;;;9.73;;
36995;SDS011;22905;50.340;10.776;2023-05-20T13:25:03;13.95;;;9.68;;
36995;SDS011;22905;50.340;10.776;2023-05-20T13:30:04;16.38;;;9.60;;
36995;SDS011;22905;50.340;10.776;2023-05-20T13:35:05;15.77;;;10.50;;
36995;SDS011;22905;50.340;10.776;2023-05-20T13:40:06;15.65;;;9.68;;
36995;SDS011;22905;50.340;10.776;2023-05-20T13:45:07;14.48;;;9.25;;
36995;SDS011;22905;50.340;10.776;2023-05-20T13:50:08;16.85;;;9.93;;
36995;SDS011;22905;50.340;10.776;2023-05-20T13:55:09;17.47;;;10.43;;
36995;SDS011;22905;50.340;10.776;2023-05-20T14:00:09;12.93;;;9.60;;
36995;SDS011;22905;50.340;10.776;2023-05-20T14:05:10;16.83;;;10.68;;
36995;SDS011;22905;50.340;10.776;2023-05-20T14:10:12;15.43;;;10.38;;
36995;SDS011;22905;50.340;10.776;2023-05-20T14:15:12;18.43;;;11.33;;
36995;SDS011;22905;50.340;10.776;2023-05-20T14:20:12;14.38;;;10.05;;
36995;SDS011;22905;50.340;10.776;2023-05-20T14:25:13;17.95;;;11.48;;
36995;SDS011;22905;50.340;10.776;2023-05-20T14:30:13;16.10;;;11.45;;
36995;SDS011;22905;50.340;10.776;2023-05-20T14:35:14;22.13;;;11.80;;
36995;SDS011;22905;50.340;10.776;2023-05-20T14:40:15;19.08;;;10.85;;
36995;SDS011;22905;50.340;10.776;2023-05-20T14:45:15;15.07;;;11.70;;
36995;SDS011;22905;50.340;10.776;2023-05-20T14:50:16;22.67;;;11.17;;
36995;SDS011;22905;50.340;10.776;2023-05-20T14:55:16;15.20;;;11.68;;
36995;SDS011;22905;50.340;10.776;2023-05-20T15:00:16;18.43;;;10.90;;
36995;SDS011;22905;50.340;10.776;2023-05-20T15:05:17;20.90;;;11.70;;
36995;SDS011;22905;50.340;10.776;2023-05-20T15:10:17;17.60;;;11.55;;
36995;SDS011;22905;50.340;10.776;2023-05-20T15:15:19;17.43;;;12.03;;
36995;SDS011;22905;50.340;10.776;2023-05-20T15:25:20;17.92;;;11.70;;
36995;SDS011;22905;50.340;10.776;2023-05-20T15:30:20;20.65;;;12.93;;
36995;SDS011;22905;50.340;10.776;2023-05-20T15:35:21;18.27;;;12.50;;
36995;SDS011;22905;50.340;10.776;2023-05-20T15:40:22;22.00;;;14.43;;
36995;SDS011;22905;50.340;10.776;2023-05-20T15:45:22;18.23;;;13.17;;
36995;SDS011;22905;50.340;10.776;2023-05-20T15:50:22;23.00;;;12.85;;
36995;SDS011;22905;50.340;10.776;2023-05-20T15:55:22;18.67;;;13.00;;
36995;SDS011;22905;50.340;10.776;2023-05-20T16:00:23;18.88;;;13.50;;
36995;SDS011;22905;50.340;10.776;2023-05-20T16:05:23;30.23;;;13.60;;
36995;SDS011;22905;50.340;10.776;2023-05-20T16:10:24;21.60;;;13.80;;
36995;SDS011;22905;50.340;10.776;2023-05-20T16:15:26;26.58;;;14.85;;
36995;SDS011;22905;50.340;10.776;2023-05-20T16:20:26;17.45;;;13.27;;
36995;SDS011;22905;50.340;10.776;2023-05-20T16:25:27;19.73;;;13.97;;
36995;SDS011;22905;50.340;10.776;2023-05-20T16:30:27;20.75;;;13.68;;
36995;SDS011;22905;50.340;10.776;2023-05-20T16:35:27;26.60;;;15.38;;
36995;SDS011;22905;50.340;10.776;2023-05-20T16:40:28;24.73;;;15.43;;
36995;SDS011;22905;50.340;10.776;2023-05-20T16:45:28;30.05;;;13.35;;
36995;SDS011;22905;50.340;10.776;2023-05-20T16:50:28;18.50;;;13.20;;
36995;SDS011;22905;50.340;10.776;2023-05-20T16:55:29;23.33;;;15.23;;
36995;SDS011;22905;50.340;10.776;2023-05-20T17:00:29;23.67;;;14.57;;
36995;SDS011;22905;50.340;10.776;2023-05-20T17:05:30;22.95;;;14.70;;
36995;SDS011;22905;50.340;10.776;2023-05-20T17:10:30;21.77;;;14.43;;
36995;SDS011;22905;50.340;10.776;2023-05-20T17:15:30;22.33;;;14.63;;
36995;SDS011;22905;50.340;10.776;2023-05-20T17:20:31;19.60;;;14.05;;
36995;SDS011;22905;50.340;10.776;2023-05-20T17:25:32;24.93;;;14.57;;
36995;SDS011;22905;50.340;10.776;2023-05-20T17:30:32;25.17;;;14.13;;
36995;SDS011;22905;50.340;10.776;2023-05-20T17:35:32;20.45;;;14.52;;
36995;SDS011;22905;50.340;10.776;2023-05-20T17:40:33;24.97;;;14.33;;
36995;SDS011;22905;50.340;10.776;2023-05-20T17:45:33;24.23;;;13.75;;
36995;SDS011;22905;50.340;10.776;2023-05-20T17:50:33;20.95;;;13.95;;
36995;SDS011;22905;50.340;10.776;2023-05-20T17:55:34;31.00;;;14.50;;
36995;SDS011;22905;50.340;10.776;2023-05-20T18:00:35;27.95;;;14.77;;
36995;SDS011;22905;50.340;10.776;2023-05-20T18:05:40;26.65;;;15.27;;
36995;SDS011;22905;50.340;10.776;2023-05-20T18:10:41;26.20;;;15.50;;
36995;SDS011;22905;50.340;10.776;2023-05-20T18:15:41;22.52;;;14.00;;
36995;SDS011;22905;50.340;10.776;2023-05-20T18:20:41;24.60;;;14.43;;
36995;SDS011;22905;50.340;10.776;2023-05-20T18:25:42;27.33;;;16.30;;
36995;SDS011;22905;50.340;10.776;2023-05-20T18:30:42;28.02;;;15.65;;
36995;SDS011;22905;50.340;10.776;2023-05-20T18:35:43;26.73;;;15.20;;
36995;SDS011;22905;50.340;10.776;2023-05-20T18:40:43;28.40;;;15.80;;
36995;SDS011;22905;50.340;10.776;2023-05-20T18:45:43;28.45;;;15.95;;
36995;SDS011;22905;50.340;10.776;2023-05-20T18:50:44;26.70;;;15.88;;
36995;SDS011;22905;50.340;10.776;2023-05-20T18:55:45;25.43;;;15.13;;
36995;SDS011;22905;50.340;10.776;2023-05-20T19:00:46;25.90;;;15.20;;
36995;SDS011;22905;50.340;10.776;2023-05-20T19:05:46;29.08;;;14.73;;
36995;SDS011;22905;50.340;10.776;2023-05-20T19:10:46;24.77;;;15.35;;
36995;SDS011;22905;50.340;10.776;2023-05-20T19:15:47;26.45;;;15.45;;
36995;SDS011;22905;50.340;10.776;2023-05-20T19:20:47;25.02;;;15.52;;
36995;SDS011;22905;50.340;10.776;2023-05-20T19:25:47;20.33;;;13.80;;
36995;SDS011;22905;50.340;10.776;2023-05-20T19:30:48;22.50;;;14.57;;
36995;SDS011;22905;50.340;10.776;2023-05-20T19:35:48;29.33;;;14.88;;
36995;SDS011;22905;50.340;10.776;2023-05-20T19:40:49;25.23;;;13.73;;
36995;SDS011;22905;50.340;10.776;2023-05-20T19:45:49;23.40;;;14.52;;
36995;SDS011;22905;50.340;10.776;2023-05-20T19:50:50;29.57;;;15.17;;
36995;SDS011;22905;50.340;10.776;2023-05-20T19:55:50;24.03;;;14.73;;
36995;SDS011;22905;50.340;10.776;2023-05-20T20:00:50;26.07;;;16.33;;
36995;SDS011;22905;50.340;10.776;2023-05-20T20:05:51;25.73;;;15.20;;
36995;SDS011;22905;50.340;10.776;2023-05-20T20:10:52;24.05;;;15.18;;
36995;SDS011;22905;50.340;10.776;2023-05-20T20:15:52;27.20;;;15.15;;
36995;SDS011;22905;50.340;10.776;2023-05-20T20:20:52;24.30;;;15.45;;
36995;SDS011;22905;50.340;10.776;2023-05-20T20:25:53;28.00;;;16.23;;
36995;SDS011;22905;50.340;10.776;2023-05-20T20:30:53;28.60;;;17.20;;
36995;SDS011;22905;50.340;10.776;2023-05-20T20:35:53;24.35;;;15.95;;
36995;SDS011;22905;50.340;10.776;2023-05-20T20:40:54;28.25;;;15.88;;
36995;SDS011;22905;50.340;10.776;2023-05-20T20:45:55;27.87;;;15.50;;
36995;SDS011;22905;50.340;10.776;2023-05-20T20:50:55;26.38;;;16.00;;
36995;SDS011;22905;50.340;10.776;2023-05-20T20:55:55;23.48;;;14.70;;
36995;SDS011;22905;50.340;10.776;2023-05-20T21:00:56;32.42;;;19.13;;
36995;SDS011;22905;50.340;10.776;2023-05-20T21:05:56;31.20;;;17.13;;
36995;SDS011;22905;50.340;10.776;2023-05-20T21:10:56;23.73;;;15.20;;
36995;SDS011;22905;50.340;10.776;2023-05-20T21:15:58;23.67;;;14.07;;
36995;SDS011;22905;50.340;10.776;2023-05-20T21:20:58;25.17;;;14.27;;
36995;SDS011;22905;50.340;10.776;2023-05-20T21:25:59;25.60;;;15.60;;
36995;SDS011;22905;50.340;10.776;2023-05-20T21:31:00;27.65;;;15.00;;
36995;SDS011;22905;50.340;10.776;2023-05-20T21:36:00;29.17;;;16.30;;
36995;SDS011;22905;50.340;10.776;2023-05-20T21:41:00;23.77;;;15.68;;
36995;SDS011;22905;50.340;10.776;2023-05-20T21:46:01;22.23;;;14.55;;
36995;SDS011;22905;50.340;10.776;2023-05-20T21:51:01;28.92;;;15.60;;
36995;SDS011;22905;50.340;10.776;2023-05-20T21:56:02;23.17;;;14.88;;
36995;SDS011;22905;50.340;10.776;2023-05-20T22:01:02;25.45;;;16.17;;
36995;SDS011;22905;50.340;10.776;2023-05-20T22:06:03;25.03;;;15.27;;
36995;SDS011;22905;50.340;10.776;2023-05-20T22:11:03;26.65;;;14.68;;
36995;SDS011;22905;50.340;10.776;2023-05-20T22:16:04;26.95;;;14.77;;
36995;SDS011;22905;50.340;10.776;2023-05-20T22:21:05;30.77;;;15.05;;
36995;SDS011;22905;50.340;10.776;2023-05-20T22:26:05;22.95;;;14.50;;
36995;SDS011;22905;50.340;10.776;2023-05-20T22:31:07;20.33;;;14.57;;
36995;SDS011;22905;50.340;10.776;2023-05-20T22:36:07;23.45;;;13.93;;
36995;SDS011;22905;50.340;10.776;2023-05-20T22:41:08;23.95;;;14.38;;
36995;SDS011;22905;50.340;10.776;2023-05-20T22:46:08;22.53;;;14.10;;
36995;SDS011;22905;50.340;10.776;2023-05-20T22:51:09;24.40;;;14.80;;
36995;SDS011;22905;50.340;10.776;2023-05-20T22:56:09;26.35;;;14.95;;
36995;SDS011;22905;50.340;10.776;2023-05-20T23:01:10;23.88;;;14.15;;
36995;SDS011;22905;50.340;10.776;2023-05-20T23:06:11;25.05;;;15.35;;
36995;SDS011;22905;50.340;10.776;2023-05-20T23:11:11;25.73;;;15.95;;
36995;SDS011;22905;50.340;10.776;2023-05-20T23:16:11;28.80;;;15.88;;
36995;SDS011;22905;50.340;10.776;2023-05-20T23:21:12;29.23;;;16.23;;
36995;SDS011;22905;50.340;10.776;2023-05-20T23:26:13;23.25;;;14.68;;
36995;SDS011;22905;50.340;10.776;2023-05-20T23:31:13;25.05;;;14.27;;
36995;SDS011;22905;50.340;10.776;2023-05-20T23:36:14;27.90;;;16.60;;
36995;SDS011;22905;50.340;10.776;2023-05-20T23:41:16;28.35;;;15.45;;
36995;SDS011;22905;50.340;10.776;2023-05-20T23:46:16;25.23;;;13.63;;
36995;SDS011;22905;50.340;10.776;2023-05-20T23:51:18;25.80;;;14.48;;
36995;SDS011;22905;50.340;10.776;2023-05-20T23:56:18;22.40;;;14.40;;
